sensor_id;sensor_type;location;lat;lon;timestamp;P1;durP1;ratioP1;P2;durP2;ratioP2
62796;SDS011;48839;48.546;-4.178;2023-08-30T00:00:39;3.78;;;2.08;;
62796;SDS011;48839;48.546;-4.178;2023-08-30T00:03:05;3.85;;;1.83;;
62796;SDS011;48839;48.546;-4.178;2023-08-30T00:05:31;7.60;;;2.38;;
62796;SDS011;48839;48.546;-4.178;2023-08-30T00:07:57;5.82;;;1.95;;
62796;SDS011;48839;48.546;-4.178;2023-08-30T00:10:23;6.72;;;2.28;;
62796;SDS011;48839;48.546;-4.178;2023-08-30T00:12:50;5.88;;;2.17;;
62796;SDS011;48839;48.546;-4.178;2023-08-30T00:15:16;5.85;;;2.47;;
62796;SDS011;48839;48.546;-4.178;2023-08-30T00:17:42;6.78;;;2.20;;
62796;SDS011;48839;48.546;-4.178;2023-08-30T00:20:08;6.60;;;2.10;;
62796;SDS011;48839;48.546;-4.178;2023-08-30T00:22:35;8.65;;;2.40;;
62796;SDS011;48839;48.546;-4.178;2023-08-30T00:25:01;4.38;;;2.38;;
62796;SDS011;48839;48.546;-4.178;2023-08-30T00:27:27;3.92;;;2.45;;
62796;SDS011;48839;48.546;-4.178;2023-08-30T00:29:53;8.43;;;2.63;;
62796;SDS011;48839;48.546;-4.178;2023-08-30T00:32:19;5.00;;;1.95;;
62796;SDS011;48839;48.546;-4.178;2023-08-30T00:34:46;3.15;;;1.70;;
62796;SDS011;48839;48.546;-4.178;2023-08-30T00:37:15;6.68;;;2.13;;
62796;SDS011;48839;48.546;-4.178;2023-08-30T00:39:41;3.80;;;1.75;;
62796;SDS011;48839;48.546;-4.178;2023-08-30T00:42:07;4.38;;;1.77;;
62796;SDS011;48839;48.546;-4.178;2023-08-30T00:44:34;2.70;;;1.75;;
62796;SDS011;48839;48.546;-4.178;2023-08-30T00:47:00;5.32;;;2.10;;
62796;SDS011;48839;48.546;-4.178;2023-08-30T00:49:28;6.68;;;2.10;;
62796;SDS011;48839;48.546;-4.178;2023-08-30T00:51:55;7.95;;;2.30;;
62796;SDS011;48839;48.546;-4.178;2023-08-30T00:54:22;11.15;;;3.08;;
62796;SDS011;48839;48.546;-4.178;2023-08-30T00:56:48;4.22;;;1.70;;
62796;SDS011;48839;48.546;-4.178;2023-08-30T00:59:15;4.07;;;1.92;;
62796;SDS011;48839;48.546;-4.178;2023-08-30T01:01:41;7.53;;;2.10;;
62796;SDS011;48839;48.546;-4.178;2023-08-30T01:04:07;4.18;;;2.05;;
62796;SDS011;48839;48.546;-4.178;2023-08-30T01:06:33;5.85;;;1.70;;
62796;SDS011;48839;48.546;-4.178;2023-08-30T01:09:00;3.35;;;1.77;;
62796;SDS011;48839;48.546;-4.178;2023-08-30T01:13:56;4.82;;;2.10;;
62796;SDS011;48839;48.546;-4.178;2023-08-30T01:16:24;5.65;;;2.00;;
62796;SDS011;48839;48.546;-4.178;2023-08-30T01:18:50;3.20;;;2.42;;
62796;SDS011;48839;48.546;-4.178;2023-08-30T01:21:48;5.90;;;2.35;;
62796;SDS011;48839;48.546;-4.178;2023-08-30T01:24:20;8.25;;;1.88;;
62796;SDS011;48839;48.546;-4.178;2023-08-30T01:27:08;5.95;;;2.40;;
62796;SDS011;48839;48.546;-4.178;2023-08-30T01:29:34;4.57;;;2.05;;
62796;SDS011;48839;48.546;-4.178;2023-08-30T01:32:03;6.50;;;2.28;;
62796;SDS011;48839;48.546;-4.178;2023-08-30T01:34:29;5.65;;;2.30;;
62796;SDS011;48839;48.546;-4.178;2023-08-30T01:36:55;6.88;;;2.50;;
62796;SDS011;48839;48.546;-4.178;2023-08-30T01:39:21;8.23;;;2.40;;
62796;SDS011;48839;48.546;-4.178;2023-08-30T01:41:48;7.03;;;3.08;;
62796;SDS011;48839;48.546;-4.178;2023-08-30T01:44:17;6.75;;;2.85;;
62796;SDS011;48839;48.546;-4.178;2023-08-30T01:46:43;7.50;;;2.50;;
62796;SDS011;48839;48.546;-4.178;2023-08-30T01:49:11;8.23;;;2.42;;
62796;SDS011;48839;48.546;-4.178;2023-08-30T01:51:37;5.57;;;2.05;;
62796;SDS011;48839;48.546;-4.178;2023-08-30T01:54:03;7.00;;;2.92;;
62796;SDS011;48839;48.546;-4.178;2023-08-30T01:56:30;5.50;;;2.40;;
62796;SDS011;48839;48.546;-4.178;2023-08-30T01:58:56;3.35;;;2.00;;
62796;SDS011;48839;48.546;-4.178;2023-08-30T02:01:22;4.45;;;2.42;;
62796;SDS011;48839;48.546;-4.178;2023-08-30T02:03:48;8.40;;;3.05;;
62796;SDS011;48839;48.546;-4.178;2023-08-30T02:06:19;5.45;;;1.80;;
62796;SDS011;48839;48.546;-4.178;2023-08-30T02:09:03;5.88;;;2.40;;
62796;SDS011;48839;48.546;-4.178;2023-08-30T02:11:31;9.57;;;2.92;;
62796;SDS011;48839;48.546;-4.178;2023-08-30T02:13:58;9.30;;;3.13;;
62796;SDS011;48839;48.546;-4.178;2023-08-30T02:16:25;4.85;;;2.42;;
62796;SDS011;48839;48.546;-4.178;2023-08-30T02:18:51;6.90;;;2.78;;
62796;SDS011;48839;48.546;-4.178;2023-08-30T02:21:18;6.90;;;2.88;;
62796;SDS011;48839;48.546;-4.178;2023-08-30T02:23:44;5.13;;;2.45;;
62796;SDS011;48839;48.546;-4.178;2023-08-30T02:26:14;7.10;;;2.47;;
62796;SDS011;48839;48.546;-4.178;2023-08-30T02:28:40;6.57;;;2.33;;
62796;SDS011;48839;48.546;-4.178;2023-08-30T02:31:06;6.32;;;2.60;;
62796;SDS011;48839;48.546;-4.178;2023-08-30T02:33:32;4.40;;;2.35;;
62796;SDS011;48839;48.546;-4.178;2023-08-30T02:35:59;4.75;;;2.25;;
62796;SDS011;48839;48.546;-4.178;2023-08-30T02:38:25;6.15;;;2.38;;
62796;SDS011;48839;48.546;-4.178;2023-08-30T02:40:51;4.15;;;2.58;;
62796;SDS011;48839;48.546;-4.178;2023-08-30T02:43:16;5.45;;;2.42;;
62796;SDS011;48839;48.546;-4.178;2023-08-30T02:45:42;4.63;;;2.03;;
62796;SDS011;48839;48.546;-4.178;2023-08-30T02:48:08;8.35;;;2.75;;
62796;SDS011;48839;48.546;-4.178;2023-08-30T02:50:34;4.85;;;2.92;;
62796;SDS011;48839;48.546;-4.178;2023-08-30T02:53:00;5.72;;;2.60;;
62796;SDS011;48839;48.546;-4.178;2023-08-30T02:55:27;8.40;;;2.92;;
62796;SDS011;48839;48.546;-4.178;2023-08-30T02:57:53;7.38;;;2.58;;
62796;SDS011;48839;48.546;-4.178;2023-08-30T03:00:19;5.63;;;2.65;;
62796;SDS011;48839;48.546;-4.178;2023-08-30T03:02:45;3.97;;;2.38;;
62796;SDS011;48839;48.546;-4.178;2023-08-30T03:05:11;12.27;;;2.33;;
62796;SDS011;48839;48.546;-4.178;2023-08-30T03:07:37;4.43;;;2.80;;
62796;SDS011;48839;48.546;-4.178;2023-08-30T03:10:03;6.65;;;2.80;;
62796;SDS011;48839;48.546;-4.178;2023-08-30T03:12:29;6.30;;;2.42;;
62796;SDS011;48839;48.546;-4.178;2023-08-30T03:14:55;7.47;;;2.80;;
62796;SDS011;48839;48.546;-4.178;2023-08-30T03:17:21;5.80;;;3.25;;
62796;SDS011;48839;48.546;-4.178;2023-08-30T03:19:48;7.13;;;2.47;;
62796;SDS011;48839;48.546;-4.178;2023-08-30T03:22:14;6.20;;;2.63;;
62796;SDS011;48839;48.546;-4.178;2023-08-30T03:24:40;4.85;;;2.90;;
62796;SDS011;48839;48.546;-4.178;2023-08-30T03:27:06;5.88;;;2.75;;
62796;SDS011;48839;48.546;-4.178;2023-08-30T03:29:32;10.10;;;2.67;;
62796;SDS011;48839;48.546;-4.178;2023-08-30T03:31:58;6.63;;;3.22;;
62796;SDS011;48839;48.546;-4.178;2023-08-30T03:34:24;8.30;;;2.53;;
62796;SDS011;48839;48.546;-4.178;2023-08-30T03:36:50;10.00;;;3.30;;
62796;SDS011;48839;48.546;-4.178;2023-08-30T03:39:19;6.97;;;2.30;;
62796;SDS011;48839;48.546;-4.178;2023-08-30T03:41:45;5.88;;;3.00;;
62796;SDS011;48839;48.546;-4.178;2023-08-30T03:44:11;7.53;;;2.25;;
62796;SDS011;48839;48.546;-4.178;2023-08-30T03:46:37;5.60;;;2.25;;
62796;SDS011;48839;48.546;-4.178;2023-08-30T03:49:03;8.15;;;2.47;;
62796;SDS011;48839;48.546;-4.178;2023-08-30T03:51:29;9.32;;;2.60;;
62796;SDS011;48839;48.546;-4.178;2023-08-30T03:53:55;9.48;;;2.33;;
62796;SDS011;48839;48.546;-4.178;2023-08-30T03:56:22;8.27;;;2.83;;
62796;SDS011;48839;48.546;-4.178;2023-08-30T03:58:48;5.10;;;2.60;;
62796;SDS011;48839;48.546;-4.178;2023-08-30T04:01:14;5.57;;;2.58;;
62796;SDS011;48839;48.546;-4.178;2023-08-30T04:03:41;9.48;;;2.97;;
62796;SDS011;48839;48.546;-4.178;2023-08-30T04:06:07;8.45;;;2.53;;
62796;SDS011;48839;48.546;-4.178;2023-08-30T04:08:33;7.63;;;2.70;;
62796;SDS011;48839;48.546;-4.178;2023-08-30T04:10:59;12.77;;;2.65;;
62796;SDS011;48839;48.546;-4.178;2023-08-30T04:13:25;11.43;;;2.95;;
62796;SDS011;48839;48.546;-4.178;2023-08-30T04:15:51;9.10;;;3.05;;
62796;SDS011;48839;48.546;-4.178;2023-08-30T04:18:17;6.20;;;2.42;;
62796;SDS011;48839;48.546;-4.178;2023-08-30T04:20:46;5.60;;;2.70;;
62796;SDS011;48839;48.546;-4.178;2023-08-30T04:23:13;7.53;;;3.05;;
62796;SDS011;48839;48.546;-4.178;2023-08-30T04:25:39;10.48;;;3.17;;
62796;SDS011;48839;48.546;-4.178;2023-08-30T04:28:05;13.50;;;3.13;;
62796;SDS011;48839;48.546;-4.178;2023-08-30T04:30:31;6.28;;;2.90;;
62796;SDS011;48839;48.546;-4.178;2023-08-30T04:32:57;8.10;;;3.60;;
62796;SDS011;48839;48.546;-4.178;2023-08-30T04:35:24;8.55;;;3.20;;
62796;SDS011;48839;48.546;-4.178;2023-08-30T04:37:50;12.48;;;3.80;;
62796;SDS011;48839;48.546;-4.178;2023-08-30T04:40:16;9.35;;;4.00;;
62796;SDS011;48839;48.546;-4.178;2023-08-30T04:42:42;7.78;;;3.40;;
62796;SDS011;48839;48.546;-4.178;2023-08-30T04:45:08;10.63;;;3.08;;
62796;SDS011;48839;48.546;-4.178;2023-08-30T04:47:34;7.45;;;3.08;;
62796;SDS011;48839;48.546;-4.178;2023-08-30T04:50:01;12.85;;;2.88;;
62796;SDS011;48839;48.546;-4.178;2023-08-30T04:52:27;6.55;;;3.20;;
62796;SDS011;48839;48.546;-4.178;2023-08-30T04:54:53;10.38;;;3.25;;
62796;SDS011;48839;48.546;-4.178;2023-08-30T04:57:19;5.40;;;3.00;;
62796;SDS011;48839;48.546;-4.178;2023-08-30T04:59:45;15.05;;;3.47;;
62796;SDS011;48839;48.546;-4.178;2023-08-30T05:02:11;8.75;;;4.55;;
62796;SDS011;48839;48.546;-4.178;2023-08-30T05:04:37;10.02;;;3.28;;
62796;SDS011;48839;48.546;-4.178;2023-08-30T05:07:03;5.20;;;2.38;;
62796;SDS011;48839;48.546;-4.178;2023-08-30T05:09:30;5.75;;;2.97;;
62796;SDS011;48839;48.546;-4.178;2023-08-30T05:11:57;6.78;;;2.55;;
62796;SDS011;48839;48.546;-4.178;2023-08-30T05:14:23;8.18;;;2.88;;
62796;SDS011;48839;48.546;-4.178;2023-08-30T05:16:49;12.65;;;3.60;;
62796;SDS011;48839;48.546;-4.178;2023-08-30T05:19:15;4.53;;;2.40;;
62796;SDS011;48839;48.546;-4.178;2023-08-30T05:21:42;8.82;;;3.30;;
62796;SDS011;48839;48.546;-4.178;2023-08-30T05:24:08;7.45;;;2.55;;
62796;SDS011;48839;48.546;-4.178;2023-08-30T05:26:35;11.75;;;2.67;;
62796;SDS011;48839;48.546;-4.178;2023-08-30T05:29:01;9.05;;;2.92;;
62796;SDS011;48839;48.546;-4.178;2023-08-30T05:31:27;8.00;;;2.50;;
62796;SDS011;48839;48.546;-4.178;2023-08-30T05:33:53;5.30;;;3.15;;
62796;SDS011;48839;48.546;-4.178;2023-08-30T05:36:19;9.50;;;2.15;;
62796;SDS011;48839;48.546;-4.178;2023-08-30T05:38:45;7.93;;;2.75;;
62796;SDS011;48839;48.546;-4.178;2023-08-30T05:41:11;5.93;;;2.40;;
62796;SDS011;48839;48.546;-4.178;2023-08-30T05:43:37;5.63;;;2.30;;
62796;SDS011;48839;48.546;-4.178;2023-08-30T05:46:03;3.38;;;2.50;;
62796;SDS011;48839;48.546;-4.178;2023-08-30T05:48:29;4.95;;;2.70;;
62796;SDS011;48839;48.546;-4.178;2023-08-30T05:50:56;5.07;;;2.15;;
62796;SDS011;48839;48.546;-4.178;2023-08-30T05:53:22;4.80;;;2.47;;
62796;SDS011;48839;48.546;-4.178;2023-08-30T05:55:48;9.65;;;2.88;;
62796;SDS011;48839;48.546;-4.178;2023-08-30T05:58:14;4.13;;;2.13;;
62796;SDS011;48839;48.546;-4.178;2023-08-30T06:00:42;8.98;;;2.33;;
62796;SDS011;48839;48.546;-4.178;2023-08-30T06:03:08;4.65;;;2.50;;
62796;SDS011;48839;48.546;-4.178;2023-08-30T06:05:35;5.97;;;2.63;;
62796;SDS011;48839;48.546;-4.178;2023-08-30T06:08:01;5.03;;;2.28;;
62796;SDS011;48839;48.546;-4.178;2023-08-30T06:10:27;5.18;;;2.55;;
62796;SDS011;48839;48.546;-4.178;2023-08-30T06:12:53;7.38;;;2.50;;
62796;SDS011;48839;48.546;-4.178;2023-08-30T06:15:20;8.32;;;2.88;;
62796;SDS011;48839;48.546;-4.178;2023-08-30T06:17:46;4.82;;;2.47;;
62796;SDS011;48839;48.546;-4.178;2023-08-30T06:20:12;7.15;;;2.97;;
62796;SDS011;48839;48.546;-4.178;2023-08-30T06:22:38;7.00;;;2.80;;
62796;SDS011;48839;48.546;-4.178;2023-08-30T06:25:06;6.75;;;2.95;;
62796;SDS011;48839;48.546;-4.178;2023-08-30T06:27:32;7.30;;;2.75;;
62796;SDS011;48839;48.546;-4.178;2023-08-30T06:29:58;9.68;;;3.08;;
62796;SDS011;48839;48.546;-4.178;2023-08-30T06:32:24;8.07;;;3.38;;
62796;SDS011;48839;48.546;-4.178;2023-08-30T06:34:50;12.00;;;3.92;;
62796;SDS011;48839;48.546;-4.178;2023-08-30T06:37:16;14.43;;;3.95;;
62796;SDS011;48839;48.546;-4.178;2023-08-30T06:39:42;5.22;;;2.65;;
62796;SDS011;48839;48.546;-4.178;2023-08-30T06:42:08;9.23;;;2.75;;
62796;SDS011;48839;48.546;-4.178;2023-08-30T06:44:34;6.88;;;2.55;;
62796;SDS011;48839;48.546;-4.178;2023-08-30T06:47:00;5.63;;;2.13;;
62796;SDS011;48839;48.546;-4.178;2023-08-30T06:49:28;10.90;;;2.38;;
62796;SDS011;48839;48.546;-4.178;2023-08-30T06:51:56;7.60;;;2.67;;
62796;SDS011;48839;48.546;-4.178;2023-08-30T06:54:22;6.72;;;2.42;;
62796;SDS011;48839;48.546;-4.178;2023-08-30T06:56:58;7.72;;;2.20;;
62796;SDS011;48839;48.546;-4.178;2023-08-30T06:59:24;5.32;;;2.13;;
62796;SDS011;48839;48.546;-4.178;2023-08-30T07:01:50;5.68;;;2.80;;
62796;SDS011;48839;48.546;-4.178;2023-08-30T07:04:16;10.00;;;2.42;;
62796;SDS011;48839;48.546;-4.178;2023-08-30T07:06:42;5.93;;;2.20;;
62796;SDS011;48839;48.546;-4.178;2023-08-30T07:09:08;4.15;;;1.80;;
62796;SDS011;48839;48.546;-4.178;2023-08-30T07:11:34;6.93;;;2.10;;
62796;SDS011;48839;48.546;-4.178;2023-08-30T07:14:00;7.40;;;2.00;;
62796;SDS011;48839;48.546;-4.178;2023-08-30T07:16:26;3.22;;;1.73;;
62796;SDS011;48839;48.546;-4.178;2023-08-30T07:18:52;5.93;;;1.90;;
62796;SDS011;48839;48.546;-4.178;2023-08-30T07:21:18;5.55;;;1.77;;
62796;SDS011;48839;48.546;-4.178;2023-08-30T07:23:44;8.10;;;1.85;;
62796;SDS011;48839;48.546;-4.178;2023-08-30T07:26:10;7.13;;;2.22;;
62796;SDS011;48839;48.546;-4.178;2023-08-30T07:28:36;6.20;;;2.58;;
62796;SDS011;48839;48.546;-4.178;2023-08-30T07:31:03;6.93;;;2.08;;
62796;SDS011;48839;48.546;-4.178;2023-08-30T07:33:29;6.75;;;1.83;;
62796;SDS011;48839;48.546;-4.178;2023-08-30T07:35:55;11.02;;;3.58;;
62796;SDS011;48839;48.546;-4.178;2023-08-30T07:38:21;8.52;;;1.65;;
62796;SDS011;48839;48.546;-4.178;2023-08-30T07:40:47;7.25;;;1.85;;
62796;SDS011;48839;48.546;-4.178;2023-08-30T07:43:13;13.80;;;3.00;;
62796;SDS011;48839;48.546;-4.178;2023-08-30T07:45:39;10.45;;;2.38;;
62796;SDS011;48839;48.546;-4.178;2023-08-30T07:48:06;8.20;;;2.10;;
62796;SDS011;48839;48.546;-4.178;2023-08-30T07:50:32;11.80;;;2.00;;
62796;SDS011;48839;48.546;-4.178;2023-08-30T07:52:58;6.10;;;2.13;;
62796;SDS011;48839;48.546;-4.178;2023-08-30T07:55:24;15.38;;;2.80;;
62796;SDS011;48839;48.546;-4.178;2023-08-30T07:57:50;3.90;;;1.65;;
62796;SDS011;48839;48.546;-4.178;2023-08-30T08:00:16;13.48;;;2.72;;
62796;SDS011;48839;48.546;-4.178;2023-08-30T08:02:42;8.07;;;2.17;;
62796;SDS011;48839;48.546;-4.178;2023-08-30T08:05:08;8.57;;;1.73;;
62796;SDS011;48839;48.546;-4.178;2023-08-30T08:07:35;7.25;;;1.95;;
62796;SDS011;48839;48.546;-4.178;2023-08-30T08:10:01;5.75;;;1.70;;
62796;SDS011;48839;48.546;-4.178;2023-08-30T08:12:28;8.90;;;2.33;;
62796;SDS011;48839;48.546;-4.178;2023-08-30T08:14:54;6.03;;;1.63;;
62796;SDS011;48839;48.546;-4.178;2023-08-30T08:17:20;8.52;;;1.98;;
62796;SDS011;48839;48.546;-4.178;2023-08-30T08:19:46;9.20;;;1.85;;
62796;SDS011;48839;48.546;-4.178;2023-08-30T08:22:12;9.75;;;2.00;;
62796;SDS011;48839;48.546;-4.178;2023-08-30T08:24:38;11.52;;;2.22;;
62796;SDS011;48839;48.546;-4.178;2023-08-30T08:27:04;12.20;;;2.42;;
62796;SDS011;48839;48.546;-4.178;2023-08-30T08:29:31;9.60;;;1.77;;
62796;SDS011;48839;48.546;-4.178;2023-08-30T08:31:57;6.95;;;1.70;;
62796;SDS011;48839;48.546;-4.178;2023-08-30T08:34:23;8.60;;;2.25;;
62796;SDS011;48839;48.546;-4.178;2023-08-30T08:36:49;8.77;;;1.80;;
62796;SDS011;48839;48.546;-4.178;2023-08-30T08:39:15;11.05;;;1.95;;
62796;SDS011;48839;48.546;-4.178;2023-08-30T08:41:42;9.88;;;2.10;;
62796;SDS011;48839;48.546;-4.178;2023-08-30T08:44:08;11.25;;;2.55;;
62796;SDS011;48839;48.546;-4.178;2023-08-30T08:46:35;6.53;;;2.15;;
62796;SDS011;48839;48.546;-4.178;2023-08-30T08:49:05;8.60;;;2.55;;
62796;SDS011;48839;48.546;-4.178;2023-08-30T08:51:34;6.15;;;2.20;;
62796;SDS011;48839;48.546;-4.178;2023-08-30T08:54:02;9.75;;;2.22;;
62796;SDS011;48839;48.546;-4.178;2023-08-30T08:56:29;5.22;;;1.50;;
62796;SDS011;48839;48.546;-4.178;2023-08-30T08:58:55;10.40;;;2.15;;
62796;SDS011;48839;48.546;-4.178;2023-08-30T09:01:22;7.88;;;1.88;;
62796;SDS011;48839;48.546;-4.178;2023-08-30T09:03:49;7.57;;;2.67;;
62796;SDS011;48839;48.546;-4.178;2023-08-30T09:06:16;4.72;;;1.55;;
62796;SDS011;48839;48.546;-4.178;2023-08-30T09:08:42;9.35;;;1.92;;
62796;SDS011;48839;48.546;-4.178;2023-08-30T09:11:08;9.43;;;1.70;;
62796;SDS011;48839;48.546;-4.178;2023-08-30T09:13:34;7.85;;;2.00;;
62796;SDS011;48839;48.546;-4.178;2023-08-30T09:16:00;6.90;;;1.83;;
62796;SDS011;48839;48.546;-4.178;2023-08-30T09:18:27;10.88;;;2.30;;
62796;SDS011;48839;48.546;-4.178;2023-08-30T09:21:06;6.75;;;1.92;;
62796;SDS011;48839;48.546;-4.178;2023-08-30T09:23:33;7.00;;;1.90;;
62796;SDS011;48839;48.546;-4.178;2023-08-30T09:25:59;9.05;;;1.60;;
62796;SDS011;48839;48.546;-4.178;2023-08-30T09:28:25;5.53;;;1.58;;
62796;SDS011;48839;48.546;-4.178;2023-08-30T09:30:52;8.82;;;1.95;;
62796;SDS011;48839;48.546;-4.178;2023-08-30T09:33:21;6.82;;;1.77;;
62796;SDS011;48839;48.546;-4.178;2023-08-30T09:35:48;10.32;;;2.00;;
62796;SDS011;48839;48.546;-4.178;2023-08-30T09:38:17;11.43;;;2.13;;
62796;SDS011;48839;48.546;-4.178;2023-08-30T09:40:43;9.90;;;2.17;;
62796;SDS011;48839;48.546;-4.178;2023-08-30T09:43:10;7.95;;;1.83;;
62796;SDS011;48839;48.546;-4.178;2023-08-30T09:45:36;7.40;;;2.08;;
62796;SDS011;48839;48.546;-4.178;2023-08-30T09:48:03;9.70;;;1.95;;
62796;SDS011;48839;48.546;-4.178;2023-08-30T09:50:29;11.10;;;2.05;;
62796;SDS011;48839;48.546;-4.178;2023-08-30T09:53:00;5.13;;;1.70;;
62796;SDS011;48839;48.546;-4.178;2023-08-30T09:55:26;7.38;;;1.70;;
62796;SDS011;48839;48.546;-4.178;2023-08-30T09:57:52;8.02;;;1.70;;
62796;SDS011;48839;48.546;-4.178;2023-08-30T10:00:19;4.95;;;1.73;;
62796;SDS011;48839;48.546;-4.178;2023-08-30T10:02:45;8.80;;;2.05;;
62796;SDS011;48839;48.546;-4.178;2023-08-30T10:05:12;7.63;;;1.77;;
62796;SDS011;48839;48.546;-4.178;2023-08-30T10:07:38;6.72;;;1.63;;
62796;SDS011;48839;48.546;-4.178;2023-08-30T10:10:04;8.90;;;1.55;;
62796;SDS011;48839;48.546;-4.178;2023-08-30T10:12:33;8.10;;;2.03;;
62796;SDS011;48839;48.546;-4.178;2023-08-30T10:15:00;5.53;;;1.90;;
62796;SDS011;48839;48.546;-4.178;2023-08-30T10:17:31;7.00;;;2.03;;
62796;SDS011;48839;48.546;-4.178;2023-08-30T10:19:58;8.02;;;1.60;;
62796;SDS011;48839;48.546;-4.178;2023-08-30T10:22:24;5.43;;;1.85;;
62796;SDS011;48839;48.546;-4.178;2023-08-30T10:24:52;10.75;;;2.08;;
62796;SDS011;48839;48.546;-4.178;2023-08-30T10:27:20;7.07;;;1.30;;
62796;SDS011;48839;48.546;-4.178;2023-08-30T10:29:47;5.90;;;1.45;;
62796;SDS011;48839;48.546;-4.178;2023-08-30T10:32:18;5.18;;;2.80;;
62796;SDS011;48839;48.546;-4.178;2023-08-30T10:34:47;6.78;;;1.55;;
62796;SDS011;48839;48.546;-4.178;2023-08-30T10:37:14;5.45;;;1.58;;
62796;SDS011;48839;48.546;-4.178;2023-08-30T10:39:41;8.13;;;1.77;;
62796;SDS011;48839;48.546;-4.178;2023-08-30T10:42:11;6.65;;;2.75;;
62796;SDS011;48839;48.546;-4.178;2023-08-30T10:44:50;8.52;;;1.90;;
62796;SDS011;48839;48.546;-4.178;2023-08-30T10:47:19;9.02;;;1.70;;
62796;SDS011;48839;48.546;-4.178;2023-08-30T10:49:49;9.60;;;2.10;;
62796;SDS011;48839;48.546;-4.178;2023-08-30T10:52:15;10.15;;;1.85;;
62796;SDS011;48839;48.546;-4.178;2023-08-30T10:54:41;5.30;;;1.70;;
62796;SDS011;48839;48.546;-4.178;2023-08-30T10:57:14;7.78;;;2.00;;
62796;SDS011;48839;48.546;-4.178;2023-08-30T11:02:07;9.73;;;2.38;;
62796;SDS011;48839;48.546;-4.178;2023-08-30T11:04:33;6.47;;;1.40;;
62796;SDS011;48839;48.546;-4.178;2023-08-30T11:07:06;8.45;;;2.13;;
62796;SDS011;48839;48.546;-4.178;2023-08-30T11:09:32;6.15;;;2.15;;
62796;SDS011;48839;48.546;-4.178;2023-08-30T11:11:59;7.68;;;1.90;;
62796;SDS011;48839;48.546;-4.178;2023-08-30T11:14:30;5.78;;;2.00;;
62796;SDS011;48839;48.546;-4.178;2023-08-30T11:16:56;4.93;;;1.60;;
62796;SDS011;48839;48.546;-4.178;2023-08-30T11:19:22;7.38;;;1.98;;
62796;SDS011;48839;48.546;-4.178;2023-08-30T11:21:48;9.25;;;2.17;;
62796;SDS011;48839;48.546;-4.178;2023-08-30T11:24:14;7.68;;;1.65;;
62796;SDS011;48839;48.546;-4.178;2023-08-30T11:26:40;7.05;;;1.50;;
62796;SDS011;48839;48.546;-4.178;2023-08-30T11:29:07;6.60;;;1.70;;
62796;SDS011;48839;48.546;-4.178;2023-08-30T11:31:33;5.70;;;1.90;;
62796;SDS011;48839;48.546;-4.178;2023-08-30T11:33:59;10.10;;;1.77;;
62796;SDS011;48839;48.546;-4.178;2023-08-30T11:36:26;8.13;;;1.65;;
62796;SDS011;48839;48.546;-4.178;2023-08-30T11:38:53;9.10;;;2.10;;
62796;SDS011;48839;48.546;-4.178;2023-08-30T11:41:22;9.45;;;1.85;;
62796;SDS011;48839;48.546;-4.178;2023-08-30T11:43:48;7.20;;;1.40;;
62796;SDS011;48839;48.546;-4.178;2023-08-30T11:46:14;11.40;;;2.20;;
62796;SDS011;48839;48.546;-4.178;2023-08-30T11:48:40;5.13;;;1.58;;
62796;SDS011;48839;48.546;-4.178;2023-08-30T11:51:07;5.85;;;1.45;;
62796;SDS011;48839;48.546;-4.178;2023-08-30T11:53:33;4.72;;;1.50;;
62796;SDS011;48839;48.546;-4.178;2023-08-30T11:56:00;5.07;;;1.58;;
62796;SDS011;48839;48.546;-4.178;2023-08-30T11:58:26;8.52;;;2.15;;
62796;SDS011;48839;48.546;-4.178;2023-08-30T12:00:53;4.72;;;1.80;;
62796;SDS011;48839;48.546;-4.178;2023-08-30T12:03:22;6.90;;;1.85;;
62796;SDS011;48839;48.546;-4.178;2023-08-30T12:05:48;6.95;;;1.98;;
62796;SDS011;48839;48.546;-4.178;2023-08-30T12:08:31;13.48;;;1.75;;
62796;SDS011;48839;48.546;-4.178;2023-08-30T12:10:57;9.15;;;1.67;;
62796;SDS011;48839;48.546;-4.178;2023-08-30T12:13:24;6.75;;;1.65;;
62796;SDS011;48839;48.546;-4.178;2023-08-30T12:15:53;11.55;;;2.13;;
62796;SDS011;48839;48.546;-4.178;2023-08-30T12:18:23;7.32;;;1.88;;
62796;SDS011;48839;48.546;-4.178;2023-08-30T12:20:57;8.07;;;2.83;;
62796;SDS011;48839;48.546;-4.178;2023-08-30T12:26:08;7.75;;;1.80;;
62796;SDS011;48839;48.546;-4.178;2023-08-30T12:28:35;8.95;;;1.90;;
62796;SDS011;48839;48.546;-4.178;2023-08-30T12:31:01;8.32;;;1.88;;
62796;SDS011;48839;48.546;-4.178;2023-08-30T12:33:32;8.85;;;1.90;;
62796;SDS011;48839;48.546;-4.178;2023-08-30T12:35:58;8.38;;;2.75;;
62796;SDS011;48839;48.546;-4.178;2023-08-30T12:38:24;5.80;;;2.05;;
62796;SDS011;48839;48.546;-4.178;2023-08-30T12:40:51;5.03;;;1.80;;
62796;SDS011;48839;48.546;-4.178;2023-08-30T12:43:18;5.25;;;1.95;;
62796;SDS011;48839;48.546;-4.178;2023-08-30T12:45:45;6.25;;;1.58;;
62796;SDS011;48839;48.546;-4.178;2023-08-30T12:48:11;6.82;;;2.20;;
62796;SDS011;48839;48.546;-4.178;2023-08-30T12:50:39;6.35;;;1.70;;
62796;SDS011;48839;48.546;-4.178;2023-08-30T12:53:05;10.23;;;1.80;;
62796;SDS011;48839;48.546;-4.178;2023-08-30T12:55:32;6.30;;;2.20;;
62796;SDS011;48839;48.546;-4.178;2023-08-30T12:57:59;9.18;;;2.28;;
62796;SDS011;48839;48.546;-4.178;2023-08-30T13:00:25;3.03;;;1.48;;
62796;SDS011;48839;48.546;-4.178;2023-08-30T13:02:51;8.85;;;1.73;;
62796;SDS011;48839;48.546;-4.178;2023-08-30T13:05:17;4.13;;;1.50;;
62796;SDS011;48839;48.546;-4.178;2023-08-30T13:07:43;4.47;;;1.80;;
62796;SDS011;48839;48.546;-4.178;2023-08-30T13:10:09;4.95;;;2.22;;
62796;SDS011;48839;48.546;-4.178;2023-08-30T13:12:36;7.25;;;2.22;;
62796;SDS011;48839;48.546;-4.178;2023-08-30T13:15:02;11.00;;;2.50;;
62796;SDS011;48839;48.546;-4.178;2023-08-30T13:17:28;9.05;;;2.42;;
62796;SDS011;48839;48.546;-4.178;2023-08-30T13:19:54;7.60;;;1.60;;
62796;SDS011;48839;48.546;-4.178;2023-08-30T13:22:22;8.88;;;2.30;;
62796;SDS011;48839;48.546;-4.178;2023-08-30T13:24:48;8.57;;;1.88;;
62796;SDS011;48839;48.546;-4.178;2023-08-30T13:27:15;9.65;;;2.17;;
62796;SDS011;48839;48.546;-4.178;2023-08-30T13:29:41;6.10;;;1.70;;
62796;SDS011;48839;48.546;-4.178;2023-08-30T13:32:07;5.80;;;1.80;;
62796;SDS011;48839;48.546;-4.178;2023-08-30T13:34:33;5.30;;;1.92;;
62796;SDS011;48839;48.546;-4.178;2023-08-30T13:36:59;8.38;;;1.60;;
62796;SDS011;48839;48.546;-4.178;2023-08-30T13:39:25;6.05;;;2.33;;
62796;SDS011;48839;48.546;-4.178;2023-08-30T13:41:51;9.23;;;2.20;;
62796;SDS011;48839;48.546;-4.178;2023-08-30T13:44:17;4.40;;;1.65;;
62796;SDS011;48839;48.546;-4.178;2023-08-30T13:46:43;8.90;;;2.00;;
62796;SDS011;48839;48.546;-4.178;2023-08-30T13:49:12;12.18;;;1.88;;
62796;SDS011;48839;48.546;-4.178;2023-08-30T13:51:38;5.07;;;1.80;;
62796;SDS011;48839;48.546;-4.178;2023-08-30T13:54:04;10.98;;;1.67;;
62796;SDS011;48839;48.546;-4.178;2023-08-30T13:56:30;7.03;;;2.17;;
62796;SDS011;48839;48.546;-4.178;2023-08-30T13:58:57;10.98;;;1.65;;
62796;SDS011;48839;48.546;-4.178;2023-08-30T14:01:23;10.05;;;2.08;;
62796;SDS011;48839;48.546;-4.178;2023-08-30T14:03:49;7.82;;;1.98;;
62796;SDS011;48839;48.546;-4.178;2023-08-30T14:06:15;6.68;;;1.75;;
62796;SDS011;48839;48.546;-4.178;2023-08-30T14:08:42;6.15;;;1.60;;
62796;SDS011;48839;48.546;-4.178;2023-08-30T14:11:08;5.10;;;1.70;;
62796;SDS011;48839;48.546;-4.178;2023-08-30T14:13:34;10.70;;;1.83;;
62796;SDS011;48839;48.546;-4.178;2023-08-30T14:16:01;8.43;;;2.35;;
62796;SDS011;48839;48.546;-4.178;2023-08-30T14:18:31;7.05;;;1.75;;
62796;SDS011;48839;48.546;-4.178;2023-08-30T14:20:57;8.15;;;1.77;;
62796;SDS011;48839;48.546;-4.178;2023-08-30T14:23:24;9.77;;;1.63;;
62796;SDS011;48839;48.546;-4.178;2023-08-30T14:26:00;4.32;;;1.40;;
62796;SDS011;48839;48.546;-4.178;2023-08-30T14:28:26;6.82;;;1.70;;
62796;SDS011;48839;48.546;-4.178;2023-08-30T14:30:53;5.78;;;1.90;;
62796;SDS011;48839;48.546;-4.178;2023-08-30T14:33:19;5.13;;;1.45;;
62796;SDS011;48839;48.546;-4.178;2023-08-30T14:35:45;4.82;;;1.83;;
62796;SDS011;48839;48.546;-4.178;2023-08-30T14:38:11;7.20;;;1.90;;